sensor_id;sensor_type;location;lat;lon;timestamp;P1;durP1;ratioP1;P2;durP2;ratioP2
11596;SDS011;5854;48.072;16.286;2023-12-29T00:01:36;14.57;;;11.95;;
11596;SDS011;5854;48.072;16.286;2023-12-29T00:04:03;18.02;;;12.25;;
11596;SDS011;5854;48.072;16.286;2023-12-29T00:06:31;17.85;;;12.40;;
11596;SDS011;5854;48.072;16.286;2023-12-29T00:08:58;14.38;;;10.93;;
11596;SDS011;5854;48.072;16.286;2023-12-29T00:11:26;20.20;;;13.35;;
11596;SDS011;5854;48.072;16.286;2023-12-29T00:13:54;17.73;;;11.90;;
11596;SDS011;5854;48.072;16.286;2023-12-29T00:16:23;18.45;;;12.07;;
11596;SDS011;5854;48.072;16.286;2023-12-29T00:18:50;15.90;;;10.27;;
11596;SDS011;5854;48.072;16.286;2023-12-29T00:21:18;22.85;;;12.52;;
11596;SDS011;5854;48.072;16.286;2023-12-29T00:23:46;18.98;;;12.15;;
11596;SDS011;5854;48.072;16.286;2023-12-29T00:26:15;15.57;;;10.90;;
11596;SDS011;5854;48.072;16.286;2023-12-29T00:28:43;14.38;;;10.88;;
11596;SDS011;5854;48.072;16.286;2023-12-29T00:31:13;17.52;;;12.43;;
11596;SDS011;5854;48.072;16.286;2023-12-29T00:33:43;15.68;;;11.43;;
11596;SDS011;5854;48.072;16.286;2023-12-29T00:36:14;15.43;;;11.38;;
11596;SDS011;5854;48.072;16.286;2023-12-29T00:38:42;22.67;;;11.10;;
11596;SDS011;5854;48.072;16.286;2023-12-29T00:41:09;15.45;;;10.30;;
11596;SDS011;5854;48.072;16.286;2023-12-29T00:43:37;23.10;;;11.80;;
11596;SDS011;5854;48.072;16.286;2023-12-29T00:46:04;15.70;;;10.98;;
11596;SDS011;5854;48.072;16.286;2023-12-29T00:48:32;16.25;;;12.07;;
11596;SDS011;5854;48.072;16.286;2023-12-29T00:51:01;14.43;;;11.15;;
11596;SDS011;5854;48.072;16.286;2023-12-29T00:53:29;17.15;;;11.10;;
11596;SDS011;5854;48.072;16.286;2023-12-29T00:55:58;16.90;;;12.10;;
11596;SDS011;5854;48.072;16.286;2023-12-29T00:58:26;17.77;;;12.60;;
11596;SDS011;5854;48.072;16.286;2023-12-29T01:00:53;16.70;;;11.50;;
11596;SDS011;5854;48.072;16.286;2023-12-29T01:03:20;15.23;;;11.75;;
11596;SDS011;5854;48.072;16.286;2023-12-29T01:05:48;15.57;;;11.90;;
11596;SDS011;5854;48.072;16.286;2023-12-29T01:08:16;13.23;;;10.73;;
11596;SDS011;5854;48.072;16.286;2023-12-29T01:10:44;24.80;;;12.88;;
11596;SDS011;5854;48.072;16.286;2023-12-29T01:13:11;16.63;;;11.13;;
11596;SDS011;5854;48.072;16.286;2023-12-29T01:15:38;16.40;;;11.43;;
11596;SDS011;5854;48.072;16.286;2023-12-29T01:18:09;13.38;;;10.13;;
11596;SDS011;5854;48.072;16.286;2023-12-29T01:20:36;16.38;;;11.10;;
11596;SDS011;5854;48.072;16.286;2023-12-29T01:23:04;17.55;;;11.13;;
11596;SDS011;5854;48.072;16.286;2023-12-29T01:25:33;16.45;;;11.23;;
11596;SDS011;5854;48.072;16.286;2023-12-29T01:28:00;19.38;;;11.93;;
11596;SDS011;5854;48.072;16.286;2023-12-29T01:30:28;13.38;;;9.85;;
11596;SDS011;5854;48.072;16.286;2023-12-29T01:32:55;21.38;;;11.98;;
11596;SDS011;5854;48.072;16.286;2023-12-29T01:35:22;16.80;;;11.30;;
11596;SDS011;5854;48.072;16.286;2023-12-29T01:37:49;12.00;;;10.23;;
11596;SDS011;5854;48.072;16.286;2023-12-29T01:40:17;16.92;;;12.07;;
11596;SDS011;5854;48.072;16.286;2023-12-29T01:42:45;11.48;;;10.10;;
11596;SDS011;5854;48.072;16.286;2023-12-29T01:45:15;14.93;;;10.52;;
11596;SDS011;5854;48.072;16.286;2023-12-29T01:47:48;24.83;;;12.73;;
11596;SDS011;5854;48.072;16.286;2023-12-29T01:50:16;16.58;;;10.90;;
11596;SDS011;5854;48.072;16.286;2023-12-29T01:52:44;12.20;;;10.63;;
11596;SDS011;5854;48.072;16.286;2023-12-29T01:55:12;15.10;;;10.20;;
11596;SDS011;5854;48.072;16.286;2023-12-29T01:57:46;14.38;;;10.45;;
11596;SDS011;5854;48.072;16.286;2023-12-29T02:00:15;14.05;;;10.10;;
11596;SDS011;5854;48.072;16.286;2023-12-29T02:02:44;12.77;;;10.88;;
11596;SDS011;5854;48.072;16.286;2023-12-29T02:05:13;17.50;;;11.32;;
11596;SDS011;5854;48.072;16.286;2023-12-29T02:07:41;21.63;;;11.10;;
11596;SDS011;5854;48.072;16.286;2023-12-29T02:10:09;22.25;;;11.70;;
11596;SDS011;5854;48.072;16.286;2023-12-29T02:12:39;18.45;;;11.18;;
11596;SDS011;5854;48.072;16.286;2023-12-29T02:15:08;16.02;;;11.05;;
11596;SDS011;5854;48.072;16.286;2023-12-29T02:17:37;15.40;;;11.40;;
11596;SDS011;5854;48.072;16.286;2023-12-29T02:20:07;14.02;;;10.10;;
11596;SDS011;5854;48.072;16.286;2023-12-29T02:22:36;16.90;;;12.23;;
11596;SDS011;5854;48.072;16.286;2023-12-29T02:25:05;13.60;;;10.93;;
11596;SDS011;5854;48.072;16.286;2023-12-29T02:27:34;14.60;;;10.93;;
11596;SDS011;5854;48.072;16.286;2023-12-29T02:30:13;12.65;;;9.73;;
11596;SDS011;5854;48.072;16.286;2023-12-29T02:32:48;18.95;;;10.95;;
11596;SDS011;5854;48.072;16.286;2023-12-29T02:35:21;12.73;;;10.73;;
11596;SDS011;5854;48.072;16.286;2023-12-29T02:37:52;16.20;;;10.60;;
11596;SDS011;5854;48.072;16.286;2023-12-29T02:40:22;16.25;;;11.18;;
11596;SDS011;5854;48.072;16.286;2023-12-29T02:42:50;12.98;;;9.82;;
11596;SDS011;5854;48.072;16.286;2023-12-29T02:45:17;12.13;;;10.77;;
11596;SDS011;5854;48.072;16.286;2023-12-29T02:47:45;12.90;;;10.43;;
11596;SDS011;5854;48.072;16.286;2023-12-29T02:50:13;14.32;;;10.70;;
11596;SDS011;5854;48.072;16.286;2023-12-29T02:52:40;16.95;;;10.90;;
11596;SDS011;5854;48.072;16.286;2023-12-29T02:55:07;15.07;;;11.13;;
11596;SDS011;5854;48.072;16.286;2023-12-29T02:57:36;14.00;;;11.15;;
11596;SDS011;5854;48.072;16.286;2023-12-29T03:00:04;14.40;;;10.27;;
11596;SDS011;5854;48.072;16.286;2023-12-29T03:02:33;16.73;;;11.35;;
11596;SDS011;5854;48.072;16.286;2023-12-29T03:05:01;12.15;;;9.63;;
11596;SDS011;5854;48.072;16.286;2023-12-29T03:07:29;13.38;;;11.05;;
11596;SDS011;5854;48.072;16.286;2023-12-29T03:09:56;16.17;;;9.93;;
11596;SDS011;5854;48.072;16.286;2023-12-29T03:12:23;16.27;;;10.60;;
11596;SDS011;5854;48.072;16.286;2023-12-29T03:14:52;17.23;;;10.20;;
11596;SDS011;5854;48.072;16.286;2023-12-29T03:17:21;10.73;;;9.02;;
11596;SDS011;5854;48.072;16.286;2023-12-29T03:19:48;12.25;;;9.52;;
11596;SDS011;5854;48.072;16.286;2023-12-29T03:22:15;14.68;;;11.43;;
11596;SDS011;5854;48.072;16.286;2023-12-29T03:24:42;13.40;;;10.60;;
11596;SDS011;5854;48.072;16.286;2023-12-29T03:27:10;17.17;;;9.93;;
11596;SDS011;5854;48.072;16.286;2023-12-29T03:29:37;11.95;;;10.38;;
11596;SDS011;5854;48.072;16.286;2023-12-29T03:32:06;16.90;;;11.02;;
11596;SDS011;5854;48.072;16.286;2023-12-29T03:34:33;12.15;;;10.50;;
11596;SDS011;5854;48.072;16.286;2023-12-29T03:37:00;11.02;;;9.27;;
11596;SDS011;5854;48.072;16.286;2023-12-29T03:39:28;14.63;;;9.85;;
11596;SDS011;5854;48.072;16.286;2023-12-29T03:41:56;15.55;;;11.15;;
11596;SDS011;5854;48.072;16.286;2023-12-29T03:44:23;13.43;;;9.23;;
11596;SDS011;5854;48.072;16.286;2023-12-29T03:46:50;11.30;;;9.30;;
11596;SDS011;5854;48.072;16.286;2023-12-29T03:49:19;14.48;;;10.98;;
11596;SDS011;5854;48.072;16.286;2023-12-29T03:51:46;12.52;;;9.68;;
11596;SDS011;5854;48.072;16.286;2023-12-29T03:54:13;15.55;;;10.98;;
11596;SDS011;5854;48.072;16.286;2023-12-29T03:56:42;11.75;;;9.70;;
11596;SDS011;5854;48.072;16.286;2023-12-29T03:59:09;16.45;;;8.77;;
11596;SDS011;5854;48.072;16.286;2023-12-29T04:01:36;11.38;;;8.43;;
11596;SDS011;5854;48.072;16.286;2023-12-29T04:04:04;13.23;;;8.73;;
11596;SDS011;5854;48.072;16.286;2023-12-29T04:06:32;10.20;;;7.68;;
11596;SDS011;5854;48.072;16.286;2023-12-29T04:08:59;13.25;;;7.78;;
11596;SDS011;5854;48.072;16.286;2023-12-29T04:11:27;7.10;;;6.40;;
11596;SDS011;5854;48.072;16.286;2023-12-29T04:13:54;8.45;;;6.38;;
11596;SDS011;5854;48.072;16.286;2023-12-29T04:16:22;5.75;;;5.25;;
11596;SDS011;5854;48.072;16.286;2023-12-29T04:18:49;4.53;;;4.13;;
11596;SDS011;5854;48.072;16.286;2023-12-29T04:21:16;6.10;;;4.80;;
11596;SDS011;5854;48.072;16.286;2023-12-29T04:23:45;16.85;;;10.18;;
11596;SDS011;5854;48.072;16.286;2023-12-29T04:26:12;24.70;;;10.25;;
11596;SDS011;5854;48.072;16.286;2023-12-29T04:28:39;19.55;;;9.18;;
11596;SDS011;5854;48.072;16.286;2023-12-29T04:31:06;19.23;;;10.07;;
11596;SDS011;5854;48.072;16.286;2023-12-29T04:33:34;20.90;;;9.90;;
11596;SDS011;5854;48.072;16.286;2023-12-29T04:36:01;17.52;;;10.02;;
11596;SDS011;5854;48.072;16.286;2023-12-29T04:38:28;14.98;;;10.35;;
11596;SDS011;5854;48.072;16.286;2023-12-29T04:40:57;16.98;;;10.38;;
11596;SDS011;5854;48.072;16.286;2023-12-29T04:43:24;18.95;;;10.45;;
11596;SDS011;5854;48.072;16.286;2023-12-29T04:45:51;13.32;;;9.95;;
11596;SDS011;5854;48.072;16.286;2023-12-29T04:48:19;15.35;;;9.90;;
11596;SDS011;5854;48.072;16.286;2023-12-29T04:50:46;20.33;;;9.48;;
11596;SDS011;5854;48.072;16.286;2023-12-29T04:53:13;15.43;;;10.32;;
11596;SDS011;5854;48.072;16.286;2023-12-29T04:55:41;12.05;;;9.55;;
11596;SDS011;5854;48.072;16.286;2023-12-29T04:58:09;15.25;;;10.23;;
11596;SDS011;5854;48.072;16.286;2023-12-29T05:00:36;16.65;;;10.05;;
11596;SDS011;5854;48.072;16.286;2023-12-29T05:03:04;19.23;;;10.75;;
11596;SDS011;5854;48.072;16.286;2023-12-29T05:05:32;18.90;;;10.32;;
11596;SDS011;5854;48.072;16.286;2023-12-29T05:07:59;18.40;;;10.43;;
11596;SDS011;5854;48.072;16.286;2023-12-29T05:10:26;23.20;;;10.77;;
11596;SDS011;5854;48.072;16.286;2023-12-29T05:12:53;17.75;;;10.32;;
11596;SDS011;5854;48.072;16.286;2023-12-29T05:15:22;16.40;;;10.98;;
11596;SDS011;5854;48.072;16.286;2023-12-29T05:17:49;20.92;;;10.02;;
11596;SDS011;5854;48.072;16.286;2023-12-29T05:20:17;11.85;;;9.15;;
11596;SDS011;5854;48.072;16.286;2023-12-29T05:22:44;12.43;;;8.50;;
11596;SDS011;5854;48.072;16.286;2023-12-29T05:25:11;11.02;;;5.97;;
11596;SDS011;5854;48.072;16.286;2023-12-29T05:27:38;8.88;;;7.55;;
11596;SDS011;5854;48.072;16.286;2023-12-29T05:30:06;17.85;;;10.20;;
11596;SDS011;5854;48.072;16.286;2023-12-29T05:32:35;16.73;;;10.70;;
11596;SDS011;5854;48.072;16.286;2023-12-29T05:35:02;16.73;;;10.63;;
11596;SDS011;5854;48.072;16.286;2023-12-29T05:37:31;14.10;;;9.80;;
11596;SDS011;5854;48.072;16.286;2023-12-29T05:39:58;16.90;;;10.80;;
11596;SDS011;5854;48.072;16.286;2023-12-29T05:42:29;10.18;;;9.10;;
11596;SDS011;5854;48.072;16.286;2023-12-29T05:44:57;9.70;;;8.57;;
11596;SDS011;5854;48.072;16.286;2023-12-29T05:47:24;10.75;;;8.80;;
11596;SDS011;5854;48.072;16.286;2023-12-29T05:49:53;15.15;;;9.77;;
11596;SDS011;5854;48.072;16.286;2023-12-29T05:52:20;11.30;;;9.02;;
11596;SDS011;5854;48.072;16.286;2023-12-29T05:54:48;11.88;;;8.02;;
11596;SDS011;5854;48.072;16.286;2023-12-29T05:57:15;10.23;;;7.63;;
11596;SDS011;5854;48.072;16.286;2023-12-29T05:59:42;10.23;;;9.05;;
11596;SDS011;5854;48.072;16.286;2023-12-29T06:02:10;13.93;;;9.35;;
11596;SDS011;5854;48.072;16.286;2023-12-29T06:04:37;11.73;;;9.02;;
11596;SDS011;5854;48.072;16.286;2023-12-29T06:07:06;5.93;;;5.43;;
11596;SDS011;5854;48.072;16.286;2023-12-29T06:09:33;7.55;;;3.55;;
11596;SDS011;5854;48.072;16.286;2023-12-29T06:12:01;2.10;;;1.90;;
11596;SDS011;5854;48.072;16.286;2023-12-29T06:14:29;2.00;;;1.80;;
11596;SDS011;5854;48.072;16.286;2023-12-29T06:16:56;1.17;;;1.17;;
11596;SDS011;5854;48.072;16.286;2023-12-29T06:19:23;1.58;;;1.48;;
11596;SDS011;5854;48.072;16.286;2023-12-29T06:21:52;1.52;;;1.42;;
11596;SDS011;5854;48.072;16.286;2023-12-29T06:24:20;0.95;;;0.95;;
11596;SDS011;5854;48.072;16.286;2023-12-29T06:26:48;2.75;;;1.70;;
11596;SDS011;5854;48.072;16.286;2023-12-29T06:29:15;1.27;;;1.27;;
11596;SDS011;5854;48.072;16.286;2023-12-29T06:31:42;1.90;;;1.30;;
11596;SDS011;5854;48.072;16.286;2023-12-29T06:34:09;1.25;;;1.15;;
11596;SDS011;5854;48.072;16.286;2023-12-29T06:36:37;1.50;;;1.40;;
11596;SDS011;5854;48.072;16.286;2023-12-29T06:39:04;1.60;;;1.50;;
11596;SDS011;5854;48.072;16.286;2023-12-29T06:41:33;1.83;;;1.73;;
11596;SDS011;5854;48.072;16.286;2023-12-29T06:44:01;2.00;;;1.90;;
11596;SDS011;5854;48.072;16.286;2023-12-29T06:46:28;2.92;;;1.77;;
11596;SDS011;5854;48.072;16.286;2023-12-29T06:48:57;13.35;;;2.47;;
11596;SDS011;5854;48.072;16.286;2023-12-29T06:51:24;3.45;;;1.60;;
11596;SDS011;5854;48.072;16.286;2023-12-29T06:53:51;2.05;;;1.50;;
11596;SDS011;5854;48.072;16.286;2023-12-29T06:56:18;1.23;;;1.23;;
11596;SDS011;5854;48.072;16.286;2023-12-29T06:58:47;1.70;;;1.60;;
11596;SDS011;5854;48.072;16.286;2023-12-29T07:01:14;1.80;;;1.63;;
11596;SDS011;5854;48.072;16.286;2023-12-29T07:03:42;3.08;;;2.40;;
11596;SDS011;5854;48.072;16.286;2023-12-29T07:06:09;2.40;;;2.30;;
11596;SDS011;5854;48.072;16.286;2023-12-29T07:08:37;1.88;;;1.40;;
11596;SDS011;5854;48.072;16.286;2023-12-29T07:11:09;1.45;;;1.35;;
11596;SDS011;5854;48.072;16.286;2023-12-29T07:13:39;1.60;;;1.50;;
11596;SDS011;5854;48.072;16.286;2023-12-29T07:16:08;5.38;;;1.30;;
11596;SDS011;5854;48.072;16.286;2023-12-29T07:18:36;1.40;;;1.30;;
11596;SDS011;5854;48.072;16.286;2023-12-29T07:21:04;4.53;;;0.98;;
11596;SDS011;5854;48.072;16.286;2023-12-29T07:23:31;2.08;;;1.95;;
11596;SDS011;5854;48.072;16.286;2023-12-29T07:25:58;1.73;;;1.63;;
11596;SDS011;5854;48.072;16.286;2023-12-29T07:28:25;2.85;;;1.52;;
11596;SDS011;5854;48.072;16.286;2023-12-29T07:30:53;1.58;;;1.48;;
11596;SDS011;5854;48.072;16.286;2023-12-29T07:33:21;1.30;;;1.20;;
11596;SDS011;5854;48.072;16.286;2023-12-29T07:35:49;1.48;;;1.23;;
11596;SDS011;5854;48.072;16.286;2023-12-29T07:38:17;1.55;;;1.13;;
11596;SDS011;5854;48.072;16.286;2023-12-29T07:40:44;0.93;;;0.93;;
11596;SDS011;5854;48.072;16.286;2023-12-29T07:43:12;0.80;;;0.80;;
11596;SDS011;5854;48.072;16.286;2023-12-29T07:45:40;1.00;;;1.00;;
11596;SDS011;5854;48.072;16.286;2023-12-29T07:48:08;1.58;;;1.30;;
11596;SDS011;5854;48.072;16.286;2023-12-29T07:50:37;1.00;;;1.00;;
11596;SDS011;5854;48.072;16.286;2023-12-29T07:53:04;4.38;;;1.15;;
11596;SDS011;5854;48.072;16.286;2023-12-29T07:55:32;1.83;;;1.20;;
11596;SDS011;5854;48.072;16.286;2023-12-29T07:58:03;1.73;;;1.63;;
11596;SDS011;5854;48.072;16.286;2023-12-29T08:00:31;1.75;;;1.65;;
11596;SDS011;5854;48.072;16.286;2023-12-29T08:02:59;1.40;;;1.35;;
11596;SDS011;5854;48.072;16.286;2023-12-29T08:05:26;1.52;;;1.42;;
11596;SDS011;5854;48.072;16.286;2023-12-29T08:07:55;1.30;;;1.20;;
11596;SDS011;5854;48.072;16.286;2023-12-29T08:10:22;1.05;;;0.95;;
11596;SDS011;5854;48.072;16.286;2023-12-29T08:12:50;0.98;;;0.93;;
11596;SDS011;5854;48.072;16.286;2023-12-29T08:15:17;12.20;;;1.35;;
11596;SDS011;5854;48.072;16.286;2023-12-29T08:17:44;1.33;;;1.23;;
11596;SDS011;5854;48.072;16.286;2023-12-29T08:20:12;1.33;;;1.23;;
11596;SDS011;5854;48.072;16.286;2023-12-29T08:22:39;0.95;;;0.90;;
11596;SDS011;5854;48.072;16.286;2023-12-29T08:25:10;7.97;;;6.30;;
11596;SDS011;5854;48.072;16.286;2023-12-29T08:27:37;9.25;;;6.28;;
11596;SDS011;5854;48.072;16.286;2023-12-29T08:30:06;7.35;;;5.80;;
11596;SDS011;5854;48.072;16.286;2023-12-29T08:32:34;8.38;;;5.68;;
11596;SDS011;5854;48.072;16.286;2023-12-29T08:35:02;5.45;;;4.95;;
11596;SDS011;5854;48.072;16.286;2023-12-29T08:37:29;7.72;;;5.60;;
11596;SDS011;5854;48.072;16.286;2023-12-29T08:39:58;6.63;;;5.43;;
11596;SDS011;5854;48.072;16.286;2023-12-29T08:42:27;7.15;;;6.13;;
11596;SDS011;5854;48.072;16.286;2023-12-29T08:44:54;14.77;;;6.03;;
11596;SDS011;5854;48.072;16.286;2023-12-29T08:47:21;13.00;;;6.10;;
11596;SDS011;5854;48.072;16.286;2023-12-29T08:49:48;7.28;;;5.50;;
11596;SDS011;5854;48.072;16.286;2023-12-29T08:52:16;9.48;;;6.18;;
11596;SDS011;5854;48.072;16.286;2023-12-29T08:54:51;8.48;;;5.72;;
11596;SDS011;5854;48.072;16.286;2023-12-29T08:57:19;10.80;;;6.32;;
11596;SDS011;5854;48.072;16.286;2023-12-29T08:59:47;7.05;;;5.95;;
11596;SDS011;5854;48.072;16.286;2023-12-29T09:02:16;8.35;;;5.50;;
11596;SDS011;5854;48.072;16.286;2023-12-29T09:04:43;9.98;;;6.53;;
11596;SDS011;5854;48.072;16.286;2023-12-29T09:07:10;9.93;;;6.25;;
11596;SDS011;5854;48.072;16.286;2023-12-29T09:09:37;8.10;;;5.78;;
11596;SDS011;5854;48.072;16.286;2023-12-29T09:12:05;7.38;;;6.03;;
11596;SDS011;5854;48.072;16.286;2023-12-29T09:14:32;11.35;;;6.93;;
11596;SDS011;5854;48.072;16.286;2023-12-29T09:17:01;12.18;;;6.30;;
11596;SDS011;5854;48.072;16.286;2023-12-29T09:19:30;12.15;;;7.18;;
11596;SDS011;5854;48.072;16.286;2023-12-29T09:21:57;12.15;;;7.63;;
11596;SDS011;5854;48.072;16.286;2023-12-29T09:24:24;10.70;;;7.90;;
11596;SDS011;5854;48.072;16.286;2023-12-29T09:26:52;10.98;;;8.45;;
11596;SDS011;5854;48.072;16.286;2023-12-29T09:29:19;10.55;;;7.78;;
11596;SDS011;5854;48.072;16.286;2023-12-29T09:31:46;9.80;;;7.05;;
11596;SDS011;5854;48.072;16.286;2023-12-29T09:34:15;18.17;;;8.57;;
11596;SDS011;5854;48.072;16.286;2023-12-29T09:36:42;12.98;;;9.27;;
11596;SDS011;5854;48.072;16.286;2023-12-29T09:39:09;11.30;;;7.30;;
11596;SDS011;5854;48.072;16.286;2023-12-29T09:41:37;15.15;;;7.47;;
11596;SDS011;5854;48.072;16.286;2023-12-29T09:44:13;10.38;;;5.47;;
11596;SDS011;5854;48.072;16.286;2023-12-29T09:46:41;6.18;;;4.97;;
11596;SDS011;5854;48.072;16.286;2023-12-29T09:49:09;2.92;;;2.20;;
11596;SDS011;5854;48.072;16.286;2023-12-29T09:51:39;1.20;;;1.10;;
11596;SDS011;5854;48.072;16.286;2023-12-29T09:54:08;1.83;;;1.25;;
11596;SDS011;5854;48.072;16.286;2023-12-29T09:56:37;2.15;;;1.33;;
11596;SDS011;5854;48.072;16.286;2023-12-29T09:59:05;0.90;;;0.90;;
11596;SDS011;5854;48.072;16.286;2023-12-29T10:01:36;0.88;;;0.80;;
11596;SDS011;5854;48.072;16.286;2023-12-29T10:04:04;0.70;;;0.70;;
11596;SDS011;5854;48.072;16.286;2023-12-29T10:06:31;2.10;;;1.00;;
11596;SDS011;5854;48.072;16.286;2023-12-29T10:09:04;1.05;;;0.88;;
11596;SDS011;5854;48.072;16.286;2023-12-29T10:11:37;0.80;;;0.70;;
11596;SDS011;5854;48.072;16.286;2023-12-29T10:14:09;2.05;;;0.93;;
11596;SDS011;5854;48.072;16.286;2023-12-29T10:16:50;1.17;;;1.10;;
11596;SDS011;5854;48.072;16.286;2023-12-29T10:19:27;1.00;;;1.00;;
11596;SDS011;5854;48.072;16.286;2023-12-29T10:22:06;1.15;;;1.05;;
11596;SDS011;5854;48.072;16.286;2023-12-29T10:24:42;0.82;;;0.82;;
11596;SDS011;5854;48.072;16.286;2023-12-29T10:27:11;0.80;;;0.80;;
11596;SDS011;5854;48.072;16.286;2023-12-29T10:29:38;0.70;;;0.70;;
11596;SDS011;5854;48.072;16.286;2023-12-29T10:32:06;0.68;;;0.68;;
11596;SDS011;5854;48.072;16.286;2023-12-29T10:34:34;0.85;;;0.85;;
11596;SDS011;5854;48.072;16.286;2023-12-29T10:37:02;0.60;;;0.60;;
11596;SDS011;5854;48.072;16.286;2023-12-29T10:39:34;3.28;;;0.63;;
11596;SDS011;5854;48.072;16.286;2023-12-29T10:42:04;2.03;;;0.80;;
11596;SDS011;5854;48.072;16.286;2023-12-29T10:44:34;0.80;;;0.80;;
11596;SDS011;5854;48.072;16.286;2023-12-29T10:47:09;0.95;;;0.73;;
11596;SDS011;5854;48.072;16.286;2023-12-29T10:49:36;0.50;;;0.50;;
11596;SDS011;5854;48.072;16.286;2023-12-29T10:52:10;1.20;;;0.63;;
11596;SDS011;5854;48.072;16.286;2023-12-29T10:54:39;0.80;;;0.80;;
11596;SDS011;5854;48.072;16.286;2023-12-29T10:57:09;0.50;;;0.50;;
11596;SDS011;5854;48.072;16.286;2023-12-29T10:59:38;0.70;;;0.70;;
11596;SDS011;5854;48.072;16.286;2023-12-29T11:02:06;1.73;;;0.73;;
11596;SDS011;5854;48.072;16.286;2023-12-29T11:04:39;0.95;;;0.60;;
11596;SDS011;5854;48.072;16.286;2023-12-29T11:07:06;0.77;;;0.60;;
11596;SDS011;5854;48.072;16.286;2023-12-29T11:09:34;1.27;;;0.60;;
11596;SDS011;5854;48.072;16.286;2023-12-29T11:12:02;2.78;;;1.23;;
11596;SDS011;5854;48.072;16.286;2023-12-29T11:14:33;0.52;;;0.52;;
11596;SDS011;5854;48.072;16.286;2023-12-29T11:17:00;0.60;;;0.60;;
11596;SDS011;5854;48.072;16.286;2023-12-29T11:19:29;0.65;;;0.65;;
11596;SDS011;5854;48.072;16.286;2023-12-29T11:21:56;2.72;;;0.63;;
11596;SDS011;5854;48.072;16.286;2023-12-29T11:24:24;1.10;;;0.65;;
11596;SDS011;5854;48.072;16.286;2023-12-29T11:26:52;2.63;;;0.60;;
11596;SDS011;5854;48.072;16.286;2023-12-29T11:29:19;0.70;;;0.70;;
11596;SDS011;5854;48.072;16.286;2023-12-29T11:31:50;0.70;;;0.70;;
11596;SDS011;5854;48.072;16.286;2023-12-29T11:34:20;1.45;;;0.85;;
11596;SDS011;5854;48.072;16.286;2023-12-29T11:36:55;0.60;;;0.60;;
11596;SDS011;5854;48.072;16.286;2023-12-29T11:39:34;0.70;;;0.70;;
11596;SDS011;5854;48.072;16.286;2023-12-29T11:42:11;0.50;;;0.50;;
11596;SDS011;5854;48.072;16.286;2023-12-29T11:44:47;0.57;;;0.50;;
11596;SDS011;5854;48.072;16.286;2023-12-29T11:47:35;0.38;;;0.38;;
11596;SDS011;5854;48.072;16.286;2023-12-29T11:50:03;0.60;;;0.60;;
11596;SDS011;5854;48.072;16.286;2023-12-29T11:52:34;0.50;;;0.50;;
11596;SDS011;5854;48.072;16.286;2023-12-29T11:55:07;1.17;;;0.50;;
11596;SDS011;5854;48.072;16.286;2023-12-29T11:57:36;0.50;;;0.50;;
11596;SDS011;5854;48.072;16.286;2023-12-29T12:00:04;1.10;;;1.00;;
11596;SDS011;5854;48.072;16.286;2023-12-29T12:02:32;1.58;;;0.60;;
11596;SDS011;5854;48.072;16.286;2023-12-29T12:05:02;0.65;;;0.60;;
11596;SDS011;5854;48.072;16.286;2023-12-29T12:10:28;0.95;;;0.47;;
11596;SDS011;5854;48.072;16.286;2023-12-29T12:12:58;0.73;;;0.50;;
11596;SDS011;5854;48.072;16.286;2023-12-29T12:15:31;0.80;;;0.65;;
11596;SDS011;5854;48.072;16.286;2023-12-29T12:17:59;1.48;;;0.50;;
11596;SDS011;5854;48.072;16.286;2023-12-29T12:20:31;0.50;;;0.50;;
11596;SDS011;5854;48.072;16.286;2023-12-29T12:22:59;0.60;;;0.60;;
11596;SDS011;5854;48.072;16.286;2023-12-29T12:25:27;1.08;;;0.60;;
11596;SDS011;5854;48.072;16.286;2023-12-29T12:27:59;0.50;;;0.50;;
11596;SDS011;5854;48.072;16.286;2023-12-29T12:30:31;0.50;;;0.50;;
11596;SDS011;5854;48.072;16.286;2023-12-29T12:33:03;0.40;;;0.40;;
11596;SDS011;5854;48.072;16.286;2023-12-29T12:35:32;0.38;;;0.38;;
11596;SDS011;5854;48.072;16.286;2023-12-29T12:38:09;2.65;;;0.60;;
11596;SDS011;5854;48.072;16.286;2023-12-29T12:40:36;0.75;;;0.75;;
11596;SDS011;5854;48.072;16.286;2023-12-29T12:43:04;0.40;;;0.40;;
11596;SDS011;5854;48.072;16.286;2023-12-29T12:45:33;0.60;;;0.43;;
11596;SDS011;5854;48.072;16.286;2023-12-29T12:48:14;0.70;;;0.70;;
11596;SDS011;5854;48.072;16.286;2023-12-29T12:50:49;0.60;;;0.60;;
11596;SDS011;5854;48.072;16.286;2023-12-29T12:53:19;0.40;;;0.40;;
11596;SDS011;5854;48.072;16.286;2023-12-29T12:55:47;1.33;;;0.68;;
11596;SDS011;5854;48.072;16.286;2023-12-29T12:58:16;0.52;;;0.52;;
11596;SDS011;5854;48.072;16.286;2023-12-29T13:00:44;0.60;;;0.60;;
11596;SDS011;5854;48.072;16.286;2023-12-29T13:03:12;0.80;;;0.80;;
11596;SDS011;5854;48.072;16.286;2023-12-29T13:05:40;0.85;;;0.85;;
11596;SDS011;5854;48.072;16.286;2023-12-29T13:08:09;2.63;;;0.73;;
11596;SDS011;5854;48.072;16.286;2023-12-29T13:10:40;0.60;;;0.60;;
11596;SDS011;5854;48.072;16.286;2023-12-29T13:13:08;3.28;;;0.60;;
11596;SDS011;5854;48.072;16.286;2023-12-29T13:15:35;0.70;;;0.70;;
11596;SDS011;5854;48.072;16.286;2023-12-29T13:18:13;3.40;;;0.98;;
11596;SDS011;5854;48.072;16.286;2023-12-29T13:20:44;0.80;;;0.80;;
11596;SDS011;5854;48.072;16.286;2023-12-29T13:23:14;1.85;;;1.30;;
11596;SDS011;5854;48.072;16.286;2023-12-29T13:25:42;1.25;;;1.10;;
11596;SDS011;5854;48.072;16.286;2023-12-29T13:28:11;1.80;;;1.70;;
11596;SDS011;5854;48.072;16.286;2023-12-29T13:30:39;2.03;;;1.25;;
11596;SDS011;5854;48.072;16.286;2023-12-29T13:33:08;2.28;;;1.50;;
11596;SDS011;5854;48.072;16.286;2023-12-29T13:35:44;1.45;;;1.35;;
11596;SDS011;5854;48.072;16.286;2023-12-29T13:38:18;2.80;;;1.20;;
11596;SDS011;5854;48.072;16.286;2023-12-29T13:40:53;1.60;;;1.35;;
11596;SDS011;5854;48.072;16.286;2023-12-29T13:43:24;3.72;;;1.63;;
11596;SDS011;5854;48.072;16.286;2023-12-29T13:45:53;2.78;;;1.40;;
11596;SDS011;5854;48.072;16.286;2023-12-29T13:48:21;1.95;;;1.65;;
11596;SDS011;5854;48.072;16.286;2023-12-29T13:50:48;2.55;;;1.55;;
11596;SDS011;5854;48.072;16.286;2023-12-29T13:53:18;1.75;;;1.65;;
11596;SDS011;5854;48.072;16.286;2023-12-29T13:55:47;2.45;;;1.38;;
11596;SDS011;5854;48.072;16.286;2023-12-29T13:58:16;2.28;;;1.30;;
11596;SDS011;5854;48.072;16.286;2023-12-29T14:00:43;3.55;;;1.73;;
11596;SDS011;5854;48.072;16.286;2023-12-29T14:03:14;2.03;;;1.67;;
11596;SDS011;5854;48.072;16.286;2023-12-29T14:05:51;2.72;;;1.65;;
11596;SDS011;5854;48.072;16.286;2023-12-29T14:08:25;2.30;;;1.38;;
11596;SDS011;5854;48.072;16.286;2023-12-29T14:10:59;3.35;;;1.60;;
11596;SDS011;5854;48.072;16.286;2023-12-29T14:13:26;1.85;;;1.55;;
11596;SDS011;5854;48.072;16.286;2023-12-29T14:15:54;1.90;;;1.80;;
11596;SDS011;5854;48.072;16.286;2023-12-29T14:18:29;2.03;;;1.27;;
11596;SDS011;5854;48.072;16.286;2023-12-29T14:21:28;1.70;;;1.40;;
11596;SDS011;5854;48.072;16.286;2023-12-29T14:24:07;1.95;;;1.17;;
11596;SDS011;5854;48.072;16.286;2023-12-29T14:26:35;2.50;;;1.55;;
11596;SDS011;5854;48.072;16.286;2023-12-29T14:29:03;4.75;;;1.90;;
11596;SDS011;5854;48.072;16.286;2023-12-29T14:31:32;2.38;;;1.35;;
11596;SDS011;5854;48.072;16.286;2023-12-29T14:34:02;4.68;;;1.55;;
11596;SDS011;5854;48.072;16.286;2023-12-29T14:36:30;5.10;;;2.00;;
11596;SDS011;5854;48.072;16.286;2023-12-29T14:38:58;4.32;;;1.52;;
11596;SDS011;5854;48.072;16.286;2023-12-29T14:41:27;9.02;;;1.63;;
11596;SDS011;5854;48.072;16.286;2023-12-29T14:43:54;10.40;;;3.55;;
11596;SDS011;5854;48.072;16.286;2023-12-29T14:46:21;9.27;;;4.15;;
11596;SDS011;5854;48.072;16.286;2023-12-29T14:48:49;8.65;;;3.95;;
11596;SDS011;5854;48.072;16.286;2023-12-29T14:51:16;7.03;;;2.45;;